createdAt,value
2018-01-08T00:01:37.896Z,91.86
2018-01-08T00:04:05.511Z,91.86
2018-01-08T00:06:33.024Z,91.86
2018-01-08T00:09:00.584Z,91.97
2018-01-08T00:11:28.159Z,91.69
2018-01-08T00:13:55.688Z,91.96
2018-01-08T00:16:23.266Z,92.11
2018-01-08T00:18:50.822Z,92.35
2018-01-08T00:21:18.388Z,92.28
2018-01-08T00:23:45.933Z,92.24
2018-01-08T00:26:13.734Z,92.06
2018-01-08T00:28:41.300Z,92.18
2018-01-08T00:31:08.902Z,92.28
2018-01-08T00:33:36.453Z,92.12
2018-01-08T00:36:04.098Z,92.08
2018-01-08T00:38:31.674Z,92.31
2018-01-08T00:40:59.230Z,92.32
2018-01-08T00:43:26.834Z,92.33
2018-01-08T00:45:54.390Z,92.33
2018-01-08T00:48:21.920Z,92.46
2018-01-08T00:50:49.512Z,92.44
2018-01-08T00:53:17.062Z,92.39
2018-01-08T00:55:44.609Z,92.55
2018-01-08T00:58:12.180Z,92.44
2018-01-08T01:00:39.816Z,92.61
2018-01-08T01:03:07.420Z,92.72
2018-01-08T01:05:35.027Z,92.57
2018-01-08T01:08:02.577Z,92.72
2018-01-08T01:10:30.161Z,92.73
2018-01-08T01:12:57.710Z,92.92
2018-01-08T01:15:25.286Z,92.98
2018-01-08T01:17:52.858Z,93.16
2018-01-08T01:20:20.538Z,93.23
2018-01-08T01:22:48.145Z,93.42
2018-01-08T01:25:15.696Z,93.56
2018-01-08T01:27:43.216Z,93.77
2018-01-08T01:30:10.804Z,93.76
2018-01-08T01:32:38.326Z,93.75
2018-01-08T01:35:05.868Z,93.82
2018-01-08T01:37:33.475Z,94.08
2018-01-08T01:40:01.016Z,94.24
2018-01-08T01:42:28.527Z,94.31
2018-01-08T01:44:56.095Z,94.14
2018-01-08T01:47:23.613Z,94.26
2018-01-08T01:49:51.144Z,94.10
2018-01-08T01:52:18.711Z,94.29
2018-01-08T01:54:46.322Z,94.39
2018-01-08T01:57:13.872Z,94.42
2018-01-08T01:59:41.437Z,94.49
2018-01-08T02:02:09.023Z,94.52
2018-01-08T02:04:36.542Z,94.48
2018-01-08T02:07:04.100Z,94.59
2018-01-08T02:09:31.658Z,94.54
2018-01-08T02:11:59.196Z,94.47
2018-01-08T02:14:26.939Z,94.60
2018-01-08T02:16:54.538Z,94.52
2018-01-08T02:19:22.084Z,94.61
2018-01-08T02:21:49.644Z,94.65
2018-01-08T02:24:17.181Z,94.63
2018-01-08T02:26:44.799Z,94.48
2018-01-08T02:29:12.365Z,94.44
2018-01-08T02:31:39.928Z,94.60
2018-01-08T02:34:07.463Z,94.55
2018-01-08T02:36:35.044Z,94.68
2018-01-08T02:39:02.604Z,94.60
2018-01-08T02:41:30.143Z,94.80
2018-01-08T02:43:57.819Z,94.94
2018-01-08T02:46:25.378Z,94.93
2018-01-08T02:48:52.919Z,95.08
2018-01-08T02:51:20.440Z,95.24
2018-01-08T02:53:48.017Z,95.28
2018-01-08T02:56:15.583Z,95.46
2018-01-08T02:58:43.165Z,95.60
2018-01-08T03:01:10.712Z,95.64
2018-01-08T03:03:38.245Z,95.72
2018-01-08T03:06:05.808Z,95.65
2018-01-08T03:08:33.417Z,95.69
2018-01-08T03:11:00.927Z,96.01
2018-01-08T03:13:28.435Z,96.02
2018-01-08T03:15:56.037Z,95.92
2018-01-08T03:18:23.554Z,96.09
2018-01-08T03:20:51.083Z,95.94
2018-01-08T03:23:18.789Z,96.23
2018-01-08T03:25:46.332Z,96.23
2018-01-08T03:28:13.842Z,96.30
2018-01-08T03:30:41.458Z,96.26
2018-01-08T03:33:09.018Z,96.36
2018-01-08T03:35:36.665Z,96.67
2018-01-08T03:38:04.277Z,96.51
2018-01-08T03:40:31.894Z,96.64
2018-01-08T03:42:59.450Z,96.65
2018-01-08T03:45:27.031Z,96.78
2018-01-08T03:47:54.577Z,96.79
2018-01-08T03:50:22.116Z,96.83
2018-01-08T03:52:49.759Z,96.82
2018-01-08T03:55:17.369Z,96.85
2018-01-08T03:57:44.972Z,96.86
2018-01-08T04:00:12.533Z,96.93
2018-01-08T04:02:40.131Z,97.11
2018-01-08T04:05:07.643Z,97.05
2018-01-08T04:07:35.513Z,97.05
2018-01-08T04:10:03.065Z,96.99
2018-01-08T04:12:30.614Z,97.00
2018-01-08T04:14:58.224Z,97.06
2018-01-08T04:17:25.817Z,97.00
2018-01-08T04:19:53.360Z,96.95
2018-01-08T04:22:20.914Z,96.92
2018-01-08T04:24:48.436Z,96.95
2018-01-08T04:27:15.978Z,96.81
2018-01-08T04:29:43.595Z,96.74
2018-01-08T04:32:11.158Z,96.67
2018-01-08T04:34:38.667Z,96.66
2018-01-08T04:37:06.238Z,96.63
2018-01-08T04:39:33.762Z,96.44
2018-01-08T04:42:01.353Z,96.47
2018-01-08T04:44:28.877Z,96.21
2018-01-08T04:46:56.387Z,96.19
2018-01-08T04:49:23.953Z,95.97
2018-01-08T04:51:51.606Z,95.79
2018-01-08T04:54:19.218Z,95.83
2018-01-08T04:56:46.764Z,95.59
2018-01-08T04:59:14.282Z,95.67
2018-01-08T05:01:41.872Z,95.46
2018-01-08T05:04:09.429Z,95.72
2018-01-08T05:06:36.976Z,95.51
2018-01-08T05:09:04.568Z,95.51
2018-01-08T05:11:32.108Z,95.40
2018-01-08T05:13:59.685Z,95.45
2018-01-08T05:16:27.285Z,95.61
2018-01-08T05:18:54.832Z,95.64
2018-01-08T05:21:22.399Z,95.17
2018-01-08T05:23:49.921Z,95.23
2018-01-08T05:26:17.575Z,95.40
2018-01-08T05:28:45.180Z,95.62
2018-01-08T05:31:12.724Z,95.88
2018-01-08T05:33:40.328Z,95.92
2018-01-08T05:36:07.888Z,96.07
2018-01-08T05:38:35.448Z,96.14
2018-01-08T05:41:03.016Z,96.27
2018-01-08T05:43:30.575Z,96.34
2018-01-08T05:45:58.148Z,96.38
2018-01-08T05:48:25.663Z,96.43
2018-01-08T05:50:53.216Z,96.39
2018-01-08T05:53:20.754Z,96.32
2018-01-08T05:55:48.293Z,96.27
2018-01-08T05:58:15.844Z,96.35
2018-01-08T06:00:43.550Z,96.41
2018-01-08T06:03:11.156Z,96.44
2018-01-08T06:05:39.017Z,96.45
2018-01-08T06:08:06.588Z,96.63
2018-01-08T06:10:34.141Z,96.50
2018-01-08T06:13:01.746Z,96.47
2018-01-08T06:15:29.269Z,96.59
2018-01-08T06:17:56.906Z,96.63
2018-01-08T06:20:24.539Z,96.65
2018-01-08T06:22:52.088Z,96.62
2018-01-08T06:25:19.774Z,96.68
2018-01-08T06:27:47.288Z,96.41
2018-01-08T06:30:14.809Z,96.61
2018-01-08T06:32:42.408Z,96.53
2018-01-08T06:35:09.923Z,96.58
2018-01-08T06:37:37.617Z,96.51
2018-01-08T06:40:05.215Z,96.54
2018-01-08T06:42:32.794Z,96.49
2018-01-08T06:45:00.367Z,96.51
2018-01-08T06:47:27.931Z,96.49
2018-01-08T06:49:55.446Z,96.50
2018-01-08T06:52:23.035Z,96.72
2018-01-08T06:54:50.546Z,96.53
2018-01-08T06:57:18.130Z,96.64
2018-01-08T06:59:45.680Z,96.45
2018-01-08T07:02:13.289Z,96.45
2018-01-08T07:04:40.846Z,96.51
2018-01-08T07:07:08.400Z,96.50
2018-01-08T07:09:35.944Z,96.42
2018-01-08T07:12:03.497Z,96.31
2018-01-08T07:14:31.142Z,96.35
2018-01-08T07:16:58.668Z,96.39
2018-01-08T07:19:26.329Z,96.39
2018-01-08T07:21:53.894Z,96.43
2018-01-08T07:24:21.507Z,96.23
2018-01-08T07:26:49.085Z,96.41
2018-01-08T07:29:16.666Z,96.19
2018-01-08T07:31:44.216Z,96.18
2018-01-08T07:34:11.813Z,96.09
2018-01-08T07:36:39.337Z,96.04
2018-01-08T07:39:07.084Z,96.26
2018-01-08T07:41:34.631Z,96.10
2018-01-08T07:44:02.227Z,96.08
2018-01-08T07:46:29.747Z,95.94
2018-01-08T07:48:57.471Z,95.92
2018-01-08T07:51:25.025Z,95.86
2018-01-08T07:53:52.594Z,96.00
2018-01-08T07:56:20.296Z,95.82
2018-01-08T07:58:47.950Z,95.75
2018-01-08T08:01:15.488Z,95.65
2018-01-08T08:03:43.069Z,95.58
2018-01-08T08:06:10.611Z,95.58
2018-01-08T08:08:38.356Z,95.25
2018-01-08T08:11:05.880Z,95.19
2018-01-08T08:13:33.414Z,95.18
2018-01-08T08:16:00.952Z,95.07
2018-01-08T08:18:28.468Z,94.86
2018-01-08T08:20:56.039Z,94.79
2018-01-08T08:23:23.593Z,94.85
2018-01-08T08:25:51.172Z,94.74
2018-01-08T08:28:18.684Z,94.51
2018-01-08T08:30:46.270Z,94.25
2018-01-08T08:33:13.817Z,94.26
2018-01-08T08:35:41.404Z,93.99
2018-01-08T08:38:08.926Z,93.91
2018-01-08T08:40:36.460Z,93.73
2018-01-08T08:43:04.154Z,93.50
2018-01-08T08:45:31.714Z,93.43
2018-01-08T08:47:59.222Z,93.28
2018-01-08T08:50:26.814Z,93.38
2018-01-08T08:52:54.362Z,93.12
2018-01-08T08:55:21.968Z,92.83
2018-01-08T08:57:49.491Z,92.60
2018-01-08T09:00:17.022Z,92.49
2018-01-08T09:02:44.621Z,92.45
2018-01-08T09:05:12.177Z,92.20
2018-01-08T09:07:39.699Z,92.17
2018-01-08T09:10:07.277Z,91.86
2018-01-08T09:12:34.877Z,91.83
2018-01-08T09:15:02.400Z,91.55
2018-01-08T09:17:29.941Z,91.46
2018-01-08T09:19:57.562Z,91.25
2018-01-08T09:22:25.125Z,91.40
2018-01-08T09:24:52.672Z,91.06
2018-01-08T09:27:20.244Z,90.92
2018-01-08T09:29:47.855Z,90.62
2018-01-08T09:32:15.394Z,90.43
2018-01-08T09:34:42.939Z,90.27
2018-01-08T09:37:10.563Z,89.84
2018-01-08T09:39:38.120Z,89.55
2018-01-08T09:42:05.644Z,89.30
2018-01-08T09:44:33.241Z,88.88
2018-01-08T09:47:00.757Z,88.61
2018-01-08T09:49:28.306Z,88.51
2018-01-08T09:51:55.912Z,88.07
2018-01-08T09:56:50.224Z,86.94
2018-01-08T09:59:17.767Z,86.67
2018-01-08T10:01:45.336Z,86.28
2018-01-08T10:04:24.830Z,85.86
2018-01-08T10:07:04.461Z,86.00
2018-01-08T10:09:43.784Z,84.97
2018-01-08T10:12:23.240Z,84.35
2018-01-08T10:15:02.848Z,84.27
2018-01-08T10:17:42.216Z,83.37
2018-01-08T10:20:09.796Z,82.89
2018-01-08T10:22:37.336Z,82.58
2018-01-08T10:25:04.853Z,82.13
2018-01-08T10:27:32.442Z,81.76
2018-01-08T10:30:00.030Z,80.88
2018-01-08T10:32:27.633Z,80.86
2018-01-08T10:34:55.309Z,80.15
2018-01-08T10:37:22.906Z,79.68
2018-01-08T10:39:50.420Z,79.26
2018-01-08T10:42:23.652Z,78.83
2018-01-08T10:44:57.040Z,78.88
2018-01-08T10:47:30.296Z,78.38
2018-01-08T10:50:03.479Z,77.82
2018-01-08T10:52:31.073Z,77.29
2018-01-08T10:55:07.339Z,76.45
2018-01-08T10:57:34.864Z,76.48
2018-01-08T11:00:02.416Z,76.14
2018-01-08T11:02:35.661Z,76.43
2018-01-08T11:05:03.196Z,75.98
2018-01-08T11:07:30.791Z,75.65
2018-01-08T11:09:58.342Z,75.89
2018-01-08T11:12:25.902Z,75.16
2018-01-08T11:14:53.448Z,74.99
2018-01-08T11:17:21.022Z,74.76
2018-01-08T11:19:48.590Z,74.62
2018-01-08T11:22:16.118Z,74.45
2018-01-08T11:24:43.689Z,74.05
2018-01-08T11:27:11.255Z,73.83
2018-01-08T11:29:38.779Z,73.47
2018-01-08T11:32:06.455Z,73.29
2018-01-08T11:34:34.123Z,73.12
2018-01-08T11:37:01.690Z,73.09
2018-01-08T11:39:29.236Z,72.92
2018-01-08T11:41:56.865Z,72.78
2018-01-08T11:44:24.412Z,72.59
2018-01-08T11:46:51.976Z,71.51
2018-01-08T11:49:19.594Z,71.86
2018-01-08T11:51:47.133Z,72.05
2018-01-08T11:54:14.692Z,71.70
2018-01-08T11:56:42.243Z,71.68
2018-01-08T11:59:09.845Z,71.42
2018-01-08T12:01:37.514Z,70.85
2018-01-08T12:04:05.055Z,70.72
2018-01-08T12:06:32.786Z,70.82
2018-01-08T12:09:00.379Z,70.77
2018-01-08T12:11:27.944Z,71.03
2018-01-08T12:13:55.518Z,70.74
2018-01-08T12:16:23.057Z,70.21
2018-01-08T12:18:50.579Z,70.31
2018-01-08T12:21:18.128Z,70.58
2018-01-08T12:23:45.736Z,70.54
2018-01-08T12:26:13.272Z,70.44
2018-01-08T12:28:40.791Z,70.28
2018-01-08T12:31:08.385Z,70.34
2018-01-08T12:33:35.952Z,70.30
2018-01-08T12:36:03.519Z,70.33
2018-01-08T12:38:31.069Z,70.22
2018-01-08T12:40:58.591Z,70.04
2018-01-08T12:43:26.148Z,69.94
2018-01-08T12:45:53.734Z,69.91
2018-01-08T12:48:21.272Z,69.28
2018-01-08T12:50:48.873Z,69.95
2018-01-08T12:53:16.534Z,70.37
2018-01-08T12:55:44.136Z,70.50
2018-01-08T12:58:11.652Z,70.00
2018-01-08T13:00:39.232Z,70.14
2018-01-08T13:03:06.800Z,69.88
2018-01-08T13:05:34.355Z,70.17
2018-01-08T13:08:01.944Z,69.74
2018-01-08T13:10:29.475Z,69.62
2018-01-08T13:12:57.072Z,69.65
2018-01-08T13:15:24.641Z,70.25
2018-01-08T13:17:52.167Z,69.82
2018-01-08T13:20:19.985Z,69.40
2018-01-08T13:22:47.554Z,69.69
2018-01-08T13:25:15.157Z,68.68
2018-01-08T13:27:42.717Z,69.18
2018-01-08T13:30:10.476Z,69.04
2018-01-08T13:32:38.040Z,68.79
2018-01-08T13:35:05.635Z,69.02
2018-01-08T13:37:33.358Z,68.71
2018-01-08T13:40:00.936Z,68.06
2018-01-08T13:42:28.756Z,68.15
2018-01-08T13:44:56.432Z,68.56
2018-01-08T13:47:24.212Z,67.61
2018-01-08T13:49:51.774Z,67.47
2018-01-08T13:52:19.357Z,67.75
2018-01-08T13:54:47.095Z,67.14
2018-01-08T13:57:14.798Z,66.80
2018-01-08T13:59:42.484Z,66.90
2018-01-08T14:02:10.069Z,67.45
2018-01-08T14:04:37.625Z,66.69
2018-01-08T14:07:08.072Z,66.77
2018-01-08T14:09:35.792Z,66.88
2018-01-08T14:12:03.516Z,66.86
2018-01-08T14:14:31.033Z,66.88
2018-01-08T14:16:58.637Z,67.74
2018-01-08T14:19:26.551Z,67.14
2018-01-08T14:21:54.100Z,68.11
2018-01-08T14:24:21.635Z,67.82
2018-01-08T14:26:49.172Z,65.97
2018-01-08T14:29:16.732Z,65.25
2018-01-08T14:31:44.333Z,65.00
2018-01-08T14:34:11.860Z,65.57
2018-01-08T14:36:39.553Z,65.76
2018-01-08T14:39:07.104Z,65.80
2018-01-08T14:41:34.637Z,65.82
2018-01-08T14:44:03.261Z,65.17
2018-01-08T14:46:30.871Z,66.96
2018-01-08T14:48:58.504Z,66.73
2018-01-08T14:51:26.044Z,66.90
2018-01-08T14:53:53.602Z,65.69
2018-01-08T14:56:21.176Z,65.77
2018-01-08T14:58:48.755Z,66.34
2018-01-08T15:01:16.316Z,66.38
2018-01-08T15:03:44.090Z,66.33
2018-01-08T15:06:11.818Z,65.88
2018-01-08T15:08:39.405Z,66.09
2018-01-08T15:11:06.986Z,65.69
2018-01-08T15:13:34.569Z,66.42
2018-01-08T15:16:02.253Z,65.57
2018-01-08T15:18:29.833Z,65.99
2018-01-08T15:20:57.407Z,65.84
2018-01-08T15:23:24.952Z,65.25
2018-01-08T15:25:52.488Z,65.29
2018-01-08T15:28:20.024Z,65.25
2018-01-08T15:30:47.580Z,64.15
2018-01-08T15:33:15.180Z,65.14
2018-01-08T15:35:42.740Z,65.23
2018-01-08T15:38:10.282Z,64.89
2018-01-08T15:40:37.897Z,64.48
2018-01-08T15:43:05.441Z,64.70
2018-01-08T15:45:32.983Z,64.87
2018-01-08T15:48:00.568Z,65.06
2018-01-08T15:50:28.079Z,65.59
2018-01-08T15:52:55.593Z,65.39
2018-01-08T15:55:23.156Z,64.23
2018-01-08T15:57:50.792Z,64.68
2018-01-08T16:00:18.423Z,65.06
2018-01-08T16:02:46.045Z,65.19
2018-01-08T16:05:13.580Z,65.89
2018-01-08T16:07:41.186Z,65.34
2018-01-08T16:10:08.741Z,65.49
2018-01-08T16:12:36.282Z,65.16
2018-01-08T16:15:03.848Z,64.74
2018-01-08T16:17:31.429Z,65.20
2018-01-08T16:19:58.934Z,65.13
2018-01-08T16:22:26.510Z,65.00
2018-01-08T16:24:54.020Z,65.20
2018-01-08T16:27:21.562Z,65.80
2018-01-08T16:29:49.076Z,65.03
2018-01-08T16:32:16.652Z,65.09
2018-01-08T16:34:44.201Z,64.96
2018-01-08T16:37:11.722Z,65.84
2018-01-08T16:39:39.426Z,65.17
2018-01-08T16:42:07.006Z,66.00
2018-01-08T16:44:34.548Z,65.63
2018-01-08T16:47:02.117Z,65.69
2018-01-08T16:49:29.674Z,65.92
2018-01-08T16:51:57.189Z,65.51
2018-01-08T16:54:24.734Z,65.39
2018-01-08T16:56:52.316Z,65.45
2018-01-08T16:59:19.823Z,65.23
2018-01-08T17:01:47.384Z,65.17
2018-01-08T17:04:15.925Z,65.55
2018-01-08T17:06:43.540Z,65.36
2018-01-08T17:09:11.046Z,65.54
2018-01-08T17:11:38.560Z,65.87
2018-01-08T17:14:06.139Z,65.96
2018-01-08T17:16:33.687Z,66.06
2018-01-08T17:19:01.241Z,66.17
2018-01-08T17:21:28.884Z,66.67
2018-01-08T17:23:56.697Z,66.05
2018-01-08T17:26:24.256Z,67.54
2018-01-08T17:28:51.809Z,66.46
2018-01-08T17:31:19.394Z,66.43
2018-01-08T17:33:47.032Z,66.32
2018-01-08T17:36:14.745Z,66.49
2018-01-08T17:38:42.278Z,66.07
2018-01-08T17:41:09.838Z,66.03
2018-01-08T17:43:37.442Z,66.20
2018-01-08T17:46:05.027Z,66.01
2018-01-08T17:48:32.604Z,67.23
2018-01-08T17:51:00.280Z,66.40
2018-01-08T17:53:28.003Z,66.16
2018-01-08T17:55:55.599Z,66.78
2018-01-08T17:58:23.310Z,66.00
2018-01-08T18:00:50.823Z,65.89
2018-01-08T18:03:18.457Z,65.61
2018-01-08T18:05:45.976Z,65.70
2018-01-08T18:08:13.705Z,65.78
2018-01-08T18:10:41.358Z,66.02
2018-01-08T18:13:08.941Z,66.25
2018-01-08T18:15:36.623Z,65.94
2018-01-08T18:18:04.300Z,65.38
2018-01-08T18:20:31.865Z,65.94
2018-01-08T18:22:59.408Z,65.47
2018-01-08T18:25:27.020Z,66.17
2018-01-08T18:27:54.608Z,65.70
2018-01-08T18:30:22.186Z,65.65
2018-01-08T18:32:49.728Z,65.79
2018-01-08T18:35:17.320Z,65.70
2018-01-08T18:37:44.867Z,65.39
2018-01-08T18:40:12.390Z,65.60
2018-01-08T18:42:39.953Z,66.35
2018-01-08T18:45:07.476Z,66.42
2018-01-08T18:47:35.020Z,66.27
2018-01-08T18:50:02.569Z,66.45
2018-01-08T18:52:30.205Z,66.36
2018-01-08T18:54:57.727Z,66.48
2018-01-08T18:57:25.472Z,66.63
2018-01-08T18:59:53.043Z,66.76
2018-01-08T19:02:20.580Z,67.70
2018-01-08T19:04:48.144Z,66.98
2018-01-08T19:07:15.717Z,67.62
2018-01-08T19:09:43.290Z,67.16
2018-01-08T19:12:10.840Z,67.27
2018-01-08T19:14:38.540Z,67.53
2018-01-08T19:17:06.116Z,67.63
2018-01-08T19:19:33.834Z,67.80
2018-01-08T19:22:01.457Z,67.85
2018-01-08T19:24:29.021Z,68.12
2018-01-08T19:26:56.547Z,68.15
2018-01-08T19:29:24.223Z,68.14
2018-01-08T19:31:51.772Z,68.42
2018-01-08T19:34:19.323Z,68.58
2018-01-08T19:36:46.885Z,68.34
2018-01-08T19:39:14.578Z,68.56
2018-01-08T19:41:42.137Z,68.82
2018-01-08T19:44:09.722Z,69.01
2018-01-08T19:46:37.341Z,69.76
2018-01-08T19:49:04.880Z,69.18
2018-01-08T19:51:32.591Z,69.39
2018-01-08T19:54:00.142Z,69.71
2018-01-08T19:56:27.722Z,69.47
2018-01-08T19:58:55.270Z,70.05
2018-01-08T20:01:22.824Z,70.42
2018-01-08T20:03:50.667Z,70.18
2018-01-08T20:06:18.220Z,70.18
2018-01-08T20:08:45.807Z,70.25
2018-01-08T20:11:13.386Z,70.39
2018-01-08T20:13:41.053Z,70.41
2018-01-08T20:16:08.670Z,70.60
2018-01-08T20:18:36.311Z,71.30
2018-01-08T20:21:03.889Z,71.10
2018-01-08T20:23:31.523Z,71.27
2018-01-08T20:25:59.124Z,70.50
2018-01-08T20:28:26.644Z,70.57
2018-01-08T20:30:54.242Z,70.40
2018-01-08T20:33:21.801Z,70.43
2018-01-08T20:35:49.391Z,70.43
2018-01-08T20:38:16.942Z,70.62
2018-01-08T20:40:44.488Z,70.73
2018-01-08T20:43:12.059Z,70.64
2018-01-08T20:45:39.623Z,71.18
2018-01-08T20:48:07.135Z,71.54
2018-01-08T20:50:34.700Z,71.58
2018-01-08T20:53:02.214Z,71.80
2018-01-08T20:55:29.765Z,72.16
2018-01-08T20:57:57.342Z,72.25
2018-01-08T21:00:24.944Z,72.12
2018-01-08T21:02:52.497Z,72.93
2018-01-08T21:05:20.092Z,72.24
2018-01-08T21:07:47.633Z,72.22
2018-01-08T21:10:15.176Z,72.49
2018-01-08T21:12:42.798Z,72.06
2018-01-08T21:15:10.413Z,72.22
2018-01-08T21:17:37.924Z,72.19
2018-01-08T21:20:05.542Z,72.39
2018-01-08T21:22:33.190Z,73.14
2018-01-08T21:25:00.745Z,73.21
2018-01-08T21:27:28.312Z,73.57
2018-01-08T21:29:55.865Z,73.44
2018-01-08T21:32:23.408Z,73.40
2018-01-08T21:34:50.941Z,73.48
2018-01-08T21:37:18.542Z,73.56
2018-01-08T21:39:46.161Z,73.42
2018-01-08T21:42:13.701Z,74.02
2018-01-08T21:44:41.302Z,73.72
2018-01-08T21:47:08.888Z,73.88
2018-01-08T21:49:36.452Z,74.03
2018-01-08T21:52:03.978Z,74.15
2018-01-08T21:54:31.522Z,74.45
2018-01-08T21:56:59.060Z,74.81
2018-01-08T21:59:26.624Z,74.67
2018-01-08T22:01:54.231Z,74.91
2018-01-08T22:04:22.630Z,75.33
2018-01-08T22:06:50.165Z,75.22
2018-01-08T22:09:17.731Z,75.37
2018-01-08T22:11:45.235Z,75.56
2018-01-08T22:14:12.765Z,75.35
2018-01-08T22:16:40.398Z,75.10
2018-01-08T22:19:08.095Z,75.30
2018-01-08T22:21:35.609Z,75.40
2018-01-08T22:24:03.200Z,75.63
2018-01-08T22:26:30.753Z,76.10
2018-01-08T22:28:58.260Z,76.10
2018-01-08T22:31:25.786Z,76.29
2018-01-08T22:33:53.329Z,76.23
2018-01-08T22:36:20.973Z,76.22
2018-01-08T22:38:48.509Z,76.18
2018-01-08T22:41:16.121Z,76.55
2018-01-08T22:43:43.640Z,76.25
2018-01-08T22:46:11.174Z,75.83
2018-01-08T22:48:38.738Z,76.08
2018-01-08T22:51:06.304Z,76.09
2018-01-08T22:53:33.922Z,76.07
2018-01-08T22:56:01.536Z,76.90
2018-01-08T22:58:29.121Z,76.67
2018-01-08T23:00:56.677Z,76.52
2018-01-08T23:03:24.215Z,76.68
2018-01-08T23:05:51.744Z,76.67
2018-01-08T23:08:19.308Z,77.15
2018-01-08T23:10:46.847Z,77.41
2018-01-08T23:13:14.499Z,77.18
2018-01-08T23:15:42.011Z,77.15
2018-01-08T23:18:09.565Z,77.66
2018-01-08T23:20:37.128Z,77.61
2018-01-08T23:23:04.735Z,77.77
2018-01-08T23:25:32.271Z,77.86
2018-01-08T23:27:59.785Z,78.22
2018-01-08T23:30:27.320Z,78.43
2018-01-08T23:32:54.979Z,78.34
2018-01-08T23:35:22.532Z,78.81
2018-01-08T23:37:50.236Z,78.92
2018-01-08T23:40:17.824Z,79.01
2018-01-08T23:42:45.408Z,79.01
2018-01-08T23:45:12.955Z,79.27
2018-01-08T23:47:40.552Z,79.40
2018-01-08T23:50:08.108Z,79.24
2018-01-08T23:52:35.624Z,79.28
2018-01-08T23:55:03.151Z,79.45
2018-01-08T23:57:30.749Z,79.52
2018-01-08T23:59:58.265Z,79.37
